クラスノヤルスク の空港の天気 - METARとTAF

イェメリャノヴォ空港 ( UNKL / KJA ) - ロシア クラスノヤルスク
飛行場実況気象(Metar)
観測時間05/18 00:00 KRAT (05/17 17:00 UTC)
風向・風速静穏 0m/s
視程10km以上
天気現象
なし
気温2℃
湿度81%
気圧1011hPa
METARUNKL 171700Z 00000MPS CAVOK 02/M01 Q1011 R29/CLRD65 NOSIG RMK QFE733
過去の天気等 Google飛行場航空写真 Wunderground天気予報

過去48時間のMETAR

飛行場予報(TAF)
発表時間: 5/17 20:45 KRAT (5/17 13:45 UTC)
予報対象時間: 17日22時 KRAT ~ 18日22時 KRAT
風向・風速西 3m/s
視程10km以上
全天の4割程度の雲 雲底高度 910m
18日1時 KRAT から
風向・風速不定 1m/s
視程5000m
天気現象弱いしゅう雨 もや
全天の4割程度の積乱雲 雲底高度 490m
18日3時 KRAT ~ 18日9時 KRAT に一時的に
視程500m
天気現象弱いしゅう雨 霧
18日10時 KRAT から
風向・風速東 3m/s 瞬間風速 10m/s
視程10km以上
全天の8割程度の積乱雲 雲底高度 490m
18日10時 KRAT ~ 18日19時 KRAT に一時的に
視程4000m
天気現象弱いしゅう雨
全天の8割程度の積乱雲 雲底高度 370m
TAF UNKL 171345Z 1715/1815 27003MPS 9999 SCT030
FM171800 VRB01MPS 5000 -SHRA BR SCT016CB
TEMPO 1720/1802 0500 -SHRA FG
FM180300 10003G10MPS 9999 BKN016CB
TEMPO 1803/1812 4000 -SHRA BKN012CB